sensor_id;sensor_type;location;lat;lon;timestamp;P1;durP1;ratioP1;P2;durP2;ratioP2
3601;SDS011;1815;50.950;6.920;2022-12-18T00:00:44;16.90;;;9.83;;
3601;SDS011;1815;50.950;6.920;2022-12-18T00:03:12;13.95;;;8.85;;
3601;SDS011;1815;50.950;6.920;2022-12-18T00:05:45;14.60;;;8.57;;
3601;SDS011;1815;50.950;6.920;2022-12-18T00:08:12;16.40;;;10.50;;
3601;SDS011;1815;50.950;6.920;2022-12-18T00:10:38;18.40;;;9.70;;
3601;SDS011;1815;50.950;6.920;2022-12-18T00:13:04;19.63;;;10.90;;
3601;SDS011;1815;50.950;6.920;2022-12-18T00:15:29;16.10;;;11.70;;
3601;SDS011;1815;50.950;6.920;2022-12-18T00:17:55;11.93;;;8.30;;
3601;SDS011;1815;50.950;6.920;2022-12-18T00:20:21;18.10;;;10.70;;
3601;SDS011;1815;50.950;6.920;2022-12-18T00:22:51;13.30;;;9.77;;
3601;SDS011;1815;50.950;6.920;2022-12-18T00:25:17;16.15;;;9.80;;
3601;SDS011;1815;50.950;6.920;2022-12-18T00:27:43;15.17;;;10.57;;
3601;SDS011;1815;50.950;6.920;2022-12-18T00:30:09;18.30;;;12.57;;
3601;SDS011;1815;50.950;6.920;2022-12-18T00:32:36;19.35;;;11.35;;
3601;SDS011;1815;50.950;6.920;2022-12-18T00:35:02;16.92;;;11.07;;
3601;SDS011;1815;50.950;6.920;2022-12-18T00:37:29;17.88;;;10.15;;
3601;SDS011;1815;50.950;6.920;2022-12-18T00:39:55;14.60;;;8.93;;
3601;SDS011;1815;50.950;6.920;2022-12-18T00:42:21;16.03;;;9.87;;
3601;SDS011;1815;50.950;6.920;2022-12-18T00:45:05;15.75;;;9.10;;
3601;SDS011;1815;50.950;6.920;2022-12-18T00:47:31;14.82;;;9.18;;
3601;SDS011;1815;50.950;6.920;2022-12-18T00:49:57;14.93;;;8.50;;
3601;SDS011;1815;50.950;6.920;2022-12-18T00:52:23;16.97;;;10.43;;
3601;SDS011;1815;50.950;6.920;2022-12-18T00:54:48;14.43;;;9.23;;
3601;SDS011;1815;50.950;6.920;2022-12-18T00:57:14;14.40;;;9.27;;
3601;SDS011;1815;50.950;6.920;2022-12-18T00:59:43;17.92;;;10.18;;
3601;SDS011;1815;50.950;6.920;2022-12-18T01:02:09;16.25;;;10.38;;
3601;SDS011;1815;50.950;6.920;2022-12-18T01:04:38;16.17;;;9.68;;
3601;SDS011;1815;50.950;6.920;2022-12-18T01:07:06;10.30;;;7.72;;
3601;SDS011;1815;50.950;6.920;2022-12-18T01:09:33;12.85;;;9.82;;
3601;SDS011;1815;50.950;6.920;2022-12-18T01:11:59;14.63;;;9.55;;
3601;SDS011;1815;50.950;6.920;2022-12-18T01:14:25;14.60;;;9.87;;
3601;SDS011;1815;50.950;6.920;2022-12-18T01:16:51;14.40;;;9.23;;
3601;SDS011;1815;50.950;6.920;2022-12-18T01:19:17;16.43;;;10.60;;
3601;SDS011;1815;50.950;6.920;2022-12-18T01:21:45;18.70;;;11.02;;
3601;SDS011;1815;50.950;6.920;2022-12-18T01:24:12;20.50;;;10.30;;
3601;SDS011;1815;50.950;6.920;2022-12-18T01:26:37;15.87;;;10.63;;
3601;SDS011;1815;50.950;6.920;2022-12-18T01:29:03;17.57;;;10.67;;
3601;SDS011;1815;50.950;6.920;2022-12-18T01:31:30;16.27;;;10.77;;
3601;SDS011;1815;50.950;6.920;2022-12-18T01:33:57;12.82;;;9.13;;
3601;SDS011;1815;50.950;6.920;2022-12-18T01:36:27;20.25;;;11.52;;
3601;SDS011;1815;50.950;6.920;2022-12-18T01:38:54;12.43;;;9.80;;
3601;SDS011;1815;50.950;6.920;2022-12-18T01:41:22;14.00;;;9.02;;
3601;SDS011;1815;50.950;6.920;2022-12-18T01:43:56;16.80;;;10.95;;
3601;SDS011;1815;50.950;6.920;2022-12-18T01:46:23;13.05;;;9.95;;
3601;SDS011;1815;50.950;6.920;2022-12-18T01:48:51;18.38;;;10.57;;
3601;SDS011;1815;50.950;6.920;2022-12-18T01:51:23;16.15;;;10.23;;
3601;SDS011;1815;50.950;6.920;2022-12-18T01:53:50;15.40;;;10.88;;
3601;SDS011;1815;50.950;6.920;2022-12-18T01:56:16;17.43;;;9.40;;
3601;SDS011;1815;50.950;6.920;2022-12-18T01:58:58;14.27;;;10.20;;
3601;SDS011;1815;50.950;6.920;2022-12-18T02:01:28;18.30;;;10.82;;
3601;SDS011;1815;50.950;6.920;2022-12-18T02:03:55;13.48;;;9.38;;
3601;SDS011;1815;50.950;6.920;2022-12-18T02:09:02;13.32;;;9.18;;
3601;SDS011;1815;50.950;6.920;2022-12-18T02:11:49;15.43;;;10.45;;
3601;SDS011;1815;50.950;6.920;2022-12-18T02:18:27;15.32;;;9.55;;
3601;SDS011;1815;50.950;6.920;2022-12-18T02:20:37;12.60;;;9.05;;
3601;SDS011;1815;50.950;6.920;2022-12-18T02:26:26;14.55;;;10.50;;
3601;SDS011;1815;50.950;6.920;2022-12-18T02:29:15;13.82;;;9.95;;
3601;SDS011;1815;50.950;6.920;2022-12-18T02:31:47;13.02;;;8.77;;
3601;SDS011;1815;50.950;6.920;2022-12-18T02:34:19;13.93;;;9.70;;
3601;SDS011;1815;50.950;6.920;2022-12-18T02:36:50;14.85;;;9.05;;
3601;SDS011;1815;50.950;6.920;2022-12-18T02:39:18;15.57;;;10.00;;
3601;SDS011;1815;50.950;6.920;2022-12-18T02:41:57;19.70;;;10.43;;
3601;SDS011;1815;50.950;6.920;2022-12-18T02:44:24;15.95;;;9.68;;
3601;SDS011;1815;50.950;6.920;2022-12-18T02:46:51;19.93;;;11.33;;
3601;SDS011;1815;50.950;6.920;2022-12-18T02:56:58;15.68;;;10.25;;
3601;SDS011;1815;50.950;6.920;2022-12-18T02:59:56;15.68;;;10.10;;
3601;SDS011;1815;50.950;6.920;2022-12-18T03:02:45;15.48;;;11.23;;
3601;SDS011;1815;50.950;6.920;2022-12-18T03:05:38;14.18;;;9.55;;
3601;SDS011;1815;50.950;6.920;2022-12-18T03:08:20;15.35;;;8.80;;
3601;SDS011;1815;50.950;6.920;2022-12-18T03:10:51;15.13;;;10.50;;
3601;SDS011;1815;50.950;6.920;2022-12-18T03:13:46;13.93;;;9.60;;
3601;SDS011;1815;50.950;6.920;2022-12-18T03:16:18;17.27;;;11.10;;
3601;SDS011;1815;50.950;6.920;2022-12-18T03:18:49;18.15;;;11.73;;
3601;SDS011;1815;50.950;6.920;2022-12-18T03:21:20;14.23;;;10.27;;
3601;SDS011;1815;50.950;6.920;2022-12-18T03:23:51;16.20;;;9.68;;
3601;SDS011;1815;50.950;6.920;2022-12-18T03:26:22;18.42;;;11.43;;
3601;SDS011;1815;50.950;6.920;2022-12-18T03:28:57;16.90;;;10.40;;
3601;SDS011;1815;50.950;6.920;2022-12-18T03:31:29;14.75;;;10.10;;
3601;SDS011;1815;50.950;6.920;2022-12-18T03:34:04;18.00;;;11.52;;
3601;SDS011;1815;50.950;6.920;2022-12-18T03:36:44;14.20;;;10.45;;
3601;SDS011;1815;50.950;6.920;2022-12-18T03:39:11;16.52;;;10.32;;
3601;SDS011;1815;50.950;6.920;2022-12-18T03:41:47;15.30;;;10.07;;
3601;SDS011;1815;50.950;6.920;2022-12-18T03:44:37;15.07;;;10.18;;
3601;SDS011;1815;50.950;6.920;2022-12-18T03:47:13;15.75;;;11.65;;
3601;SDS011;1815;50.950;6.920;2022-12-18T03:52:46;12.27;;;8.98;;
3601;SDS011;1815;50.950;6.920;2022-12-18T03:55:21;15.73;;;10.25;;
3601;SDS011;1815;50.950;6.920;2022-12-18T03:57:56;14.25;;;10.15;;
3601;SDS011;1815;50.950;6.920;2022-12-18T04:00:29;16.95;;;11.10;;
3601;SDS011;1815;50.950;6.920;2022-12-18T04:03:04;20.10;;;13.30;;
3601;SDS011;1815;50.950;6.920;2022-12-18T04:05:37;14.82;;;11.25;;
3601;SDS011;1815;50.950;6.920;2022-12-18T04:08:05;18.15;;;10.00;;
3601;SDS011;1815;50.950;6.920;2022-12-18T04:10:35;16.80;;;11.05;;
3601;SDS011;1815;50.950;6.920;2022-12-18T04:13:01;17.20;;;10.95;;
3601;SDS011;1815;50.950;6.920;2022-12-18T04:15:28;14.23;;;11.43;;
3601;SDS011;1815;50.950;6.920;2022-12-18T04:17:54;14.98;;;8.88;;
3601;SDS011;1815;50.950;6.920;2022-12-18T04:20:23;14.20;;;9.88;;
3601;SDS011;1815;50.950;6.920;2022-12-18T04:22:49;21.10;;;13.17;;
3601;SDS011;1815;50.950;6.920;2022-12-18T04:25:17;16.33;;;12.23;;
3601;SDS011;1815;50.950;6.920;2022-12-18T04:28:00;19.90;;;12.05;;
3601;SDS011;1815;50.950;6.920;2022-12-18T04:30:26;20.83;;;11.73;;
3601;SDS011;1815;50.950;6.920;2022-12-18T04:32:52;19.37;;;13.20;;
3601;SDS011;1815;50.950;6.920;2022-12-18T04:35:18;17.20;;;11.77;;
3601;SDS011;1815;50.950;6.920;2022-12-18T04:37:44;16.37;;;9.97;;
3601;SDS011;1815;50.950;6.920;2022-12-18T04:40:10;18.83;;;12.10;;
3601;SDS011;1815;50.950;6.920;2022-12-18T04:42:41;20.90;;;12.57;;
3601;SDS011;1815;50.950;6.920;2022-12-18T04:45:07;17.20;;;11.63;;
3601;SDS011;1815;50.950;6.920;2022-12-18T04:47:33;20.13;;;13.15;;
3601;SDS011;1815;50.950;6.920;2022-12-18T04:49:59;21.23;;;12.97;;
3601;SDS011;1815;50.950;6.920;2022-12-18T04:52:24;19.43;;;12.67;;
3601;SDS011;1815;50.950;6.920;2022-12-18T04:54:50;15.33;;;10.70;;
3601;SDS011;1815;50.950;6.920;2022-12-18T04:57:16;19.77;;;12.13;;
3601;SDS011;1815;50.950;6.920;2022-12-18T04:59:43;18.25;;;13.15;;
3601;SDS011;1815;50.950;6.920;2022-12-18T05:02:09;19.60;;;12.65;;
3601;SDS011;1815;50.950;6.920;2022-12-18T05:04:35;21.67;;;14.30;;
3601;SDS011;1815;50.950;6.920;2022-12-18T05:07:00;19.20;;;11.97;;
3601;SDS011;1815;50.950;6.920;2022-12-18T05:09:26;21.97;;;12.03;;
3601;SDS011;1815;50.950;6.920;2022-12-18T05:11:52;14.67;;;11.50;;
3601;SDS011;1815;50.950;6.920;2022-12-18T05:14:18;17.52;;;11.38;;
3601;SDS011;1815;50.950;6.920;2022-12-18T05:16:44;20.83;;;15.03;;
3601;SDS011;1815;50.950;6.920;2022-12-18T05:19:10;19.70;;;14.57;;
3601;SDS011;1815;50.950;6.920;2022-12-18T05:21:36;22.43;;;14.10;;
3601;SDS011;1815;50.950;6.920;2022-12-18T05:24:01;22.83;;;11.90;;
3601;SDS011;1815;50.950;6.920;2022-12-18T05:26:27;21.27;;;12.83;;
3601;SDS011;1815;50.950;6.920;2022-12-18T05:28:53;16.70;;;12.23;;
3601;SDS011;1815;50.950;6.920;2022-12-18T05:31:21;18.73;;;12.38;;
3601;SDS011;1815;50.950;6.920;2022-12-18T05:33:47;14.25;;;10.55;;
3601;SDS011;1815;50.950;6.920;2022-12-18T05:36:16;21.83;;;13.70;;
3601;SDS011;1815;50.950;6.920;2022-12-18T05:38:41;18.30;;;11.60;;
3601;SDS011;1815;50.950;6.920;2022-12-18T05:41:08;21.73;;;12.93;;
3601;SDS011;1815;50.950;6.920;2022-12-18T05:43:35;20.80;;;11.60;;
3601;SDS011;1815;50.950;6.920;2022-12-18T05:46:10;17.52;;;11.75;;
3601;SDS011;1815;50.950;6.920;2022-12-18T05:48:38;15.50;;;10.80;;
3601;SDS011;1815;50.950;6.920;2022-12-18T05:51:05;17.42;;;11.70;;
3601;SDS011;1815;50.950;6.920;2022-12-18T05:53:32;18.33;;;11.65;;
3601;SDS011;1815;50.950;6.920;2022-12-18T05:56:06;16.15;;;11.55;;
3601;SDS011;1815;50.950;6.920;2022-12-18T05:58:33;16.77;;;11.48;;
3601;SDS011;1815;50.950;6.920;2022-12-18T06:01:05;18.30;;;11.27;;
3601;SDS011;1815;50.950;6.920;2022-12-18T06:03:33;17.73;;;11.82;;
3601;SDS011;1815;50.950;6.920;2022-12-18T06:05:59;17.07;;;11.80;;
3601;SDS011;1815;50.950;6.920;2022-12-18T06:08:25;22.60;;;13.27;;
3601;SDS011;1815;50.950;6.920;2022-12-18T06:10:51;23.10;;;14.13;;
3601;SDS011;1815;50.950;6.920;2022-12-18T06:13:17;22.65;;;12.55;;
3601;SDS011;1815;50.950;6.920;2022-12-18T06:15:43;16.63;;;11.88;;
3601;SDS011;1815;50.950;6.920;2022-12-18T06:18:09;21.60;;;12.63;;
3601;SDS011;1815;50.950;6.920;2022-12-18T06:20:35;18.20;;;11.30;;
3601;SDS011;1815;50.950;6.920;2022-12-18T06:23:02;20.30;;;12.55;;
3601;SDS011;1815;50.950;6.920;2022-12-18T06:25:28;20.10;;;12.93;;
3601;SDS011;1815;50.950;6.920;2022-12-18T06:27:54;19.77;;;14.27;;
3601;SDS011;1815;50.950;6.920;2022-12-18T06:30:20;21.60;;;12.67;;
3601;SDS011;1815;50.950;6.920;2022-12-18T06:32:46;19.80;;;14.60;;
3601;SDS011;1815;50.950;6.920;2022-12-18T06:35:13;18.48;;;11.73;;
3601;SDS011;1815;50.950;6.920;2022-12-18T06:37:39;20.00;;;11.77;;
3601;SDS011;1815;50.950;6.920;2022-12-18T06:40:05;20.03;;;12.67;;
3601;SDS011;1815;50.950;6.920;2022-12-18T06:42:31;17.13;;;11.60;;
3601;SDS011;1815;50.950;6.920;2022-12-18T06:44:57;17.67;;;12.10;;
3601;SDS011;1815;50.950;6.920;2022-12-18T06:47:23;21.23;;;14.73;;
3601;SDS011;1815;50.950;6.920;2022-12-18T06:49:48;20.97;;;12.97;;
3601;SDS011;1815;50.950;6.920;2022-12-18T06:52:14;20.07;;;13.60;;
3601;SDS011;1815;50.950;6.920;2022-12-18T06:54:42;19.98;;;13.45;;
3601;SDS011;1815;50.950;6.920;2022-12-18T06:57:08;18.20;;;12.47;;
3601;SDS011;1815;50.950;6.920;2022-12-18T06:59:34;19.23;;;12.90;;
3601;SDS011;1815;50.950;6.920;2022-12-18T07:02:00;19.93;;;13.40;;
3601;SDS011;1815;50.950;6.920;2022-12-18T07:04:29;16.63;;;10.68;;
3601;SDS011;1815;50.950;6.920;2022-12-18T07:06:55;21.38;;;12.80;;
3601;SDS011;1815;50.950;6.920;2022-12-18T07:09:21;21.90;;;13.30;;
3601;SDS011;1815;50.950;6.920;2022-12-18T07:11:47;19.50;;;13.50;;
3601;SDS011;1815;50.950;6.920;2022-12-18T07:14:12;16.50;;;12.20;;
3601;SDS011;1815;50.950;6.920;2022-12-18T07:16:38;15.60;;;11.13;;
3601;SDS011;1815;50.950;6.920;2022-12-18T07:19:04;17.20;;;11.60;;
3601;SDS011;1815;50.950;6.920;2022-12-18T07:21:29;17.23;;;10.40;;
3601;SDS011;1815;50.950;6.920;2022-12-18T07:23:55;20.43;;;13.07;;
3601;SDS011;1815;50.950;6.920;2022-12-18T07:26:21;17.65;;;13.00;;
3601;SDS011;1815;50.950;6.920;2022-12-18T07:28:47;18.30;;;13.95;;
3601;SDS011;1815;50.950;6.920;2022-12-18T07:31:15;18.80;;;13.00;;
3601;SDS011;1815;50.950;6.920;2022-12-18T07:33:45;18.95;;;12.98;;
3601;SDS011;1815;50.950;6.920;2022-12-18T07:36:11;20.10;;;13.85;;
3601;SDS011;1815;50.950;6.920;2022-12-18T07:38:37;21.25;;;13.20;;
3601;SDS011;1815;50.950;6.920;2022-12-18T07:41:04;17.50;;;12.98;;
3601;SDS011;1815;50.950;6.920;2022-12-18T07:43:32;23.63;;;13.40;;
3601;SDS011;1815;50.950;6.920;2022-12-18T07:45:58;17.15;;;12.70;;
3601;SDS011;1815;50.950;6.920;2022-12-18T07:48:23;18.93;;;13.40;;
3601;SDS011;1815;50.950;6.920;2022-12-18T07:50:49;23.53;;;15.00;;
3601;SDS011;1815;50.950;6.920;2022-12-18T07:53:15;19.40;;;12.57;;
3601;SDS011;1815;50.950;6.920;2022-12-18T07:55:41;19.53;;;12.27;;
3601;SDS011;1815;50.950;6.920;2022-12-18T07:58:07;20.30;;;13.85;;
3601;SDS011;1815;50.950;6.920;2022-12-18T08:00:33;16.45;;;12.10;;
3601;SDS011;1815;50.950;6.920;2022-12-18T08:03:02;15.65;;;12.52;;
3601;SDS011;1815;50.950;6.920;2022-12-18T08:05:33;18.08;;;11.82;;
3601;SDS011;1815;50.950;6.920;2022-12-18T08:07:59;18.33;;;12.50;;
3601;SDS011;1815;50.950;6.920;2022-12-18T08:10:24;20.30;;;12.90;;
3601;SDS011;1815;50.950;6.920;2022-12-18T08:12:50;21.73;;;14.53;;
3601;SDS011;1815;50.950;6.920;2022-12-18T08:15:17;21.50;;;14.30;;
3601;SDS011;1815;50.950;6.920;2022-12-18T08:17:43;22.55;;;14.15;;
3601;SDS011;1815;50.950;6.920;2022-12-18T08:20:09;21.17;;;14.30;;
3601;SDS011;1815;50.950;6.920;2022-12-18T08:22:35;21.10;;;13.88;;
3601;SDS011;1815;50.950;6.920;2022-12-18T08:25:04;20.27;;;12.90;;
3601;SDS011;1815;50.950;6.920;2022-12-18T08:27:30;22.13;;;13.63;;
3601;SDS011;1815;50.950;6.920;2022-12-18T08:29:56;22.13;;;14.20;;
3601;SDS011;1815;50.950;6.920;2022-12-18T08:32:23;18.63;;;10.38;;
3601;SDS011;1815;50.950;6.920;2022-12-18T08:34:50;19.92;;;12.45;;
3601;SDS011;1815;50.950;6.920;2022-12-18T08:37:15;19.37;;;12.70;;
3601;SDS011;1815;50.950;6.920;2022-12-18T08:39:41;19.20;;;13.67;;
3601;SDS011;1815;50.950;6.920;2022-12-18T08:42:07;22.87;;;14.30;;
3601;SDS011;1815;50.950;6.920;2022-12-18T08:44:51;20.75;;;14.32;;
3601;SDS011;1815;50.950;6.920;2022-12-18T08:47:16;18.80;;;13.50;;
3601;SDS011;1815;50.950;6.920;2022-12-18T08:49:42;18.80;;;13.13;;
3601;SDS011;1815;50.950;6.920;2022-12-18T08:52:08;19.00;;;13.50;;
3601;SDS011;1815;50.950;6.920;2022-12-18T08:54:34;17.73;;;12.53;;
3601;SDS011;1815;50.950;6.920;2022-12-18T08:56:59;14.90;;;10.70;;
3601;SDS011;1815;50.950;6.920;2022-12-18T08:59:28;23.57;;;14.40;;
3601;SDS011;1815;50.950;6.920;2022-12-18T09:01:54;23.83;;;14.57;;
3601;SDS011;1815;50.950;6.920;2022-12-18T09:04:20;20.73;;;15.32;;
3601;SDS011;1815;50.950;6.920;2022-12-18T09:06:46;21.65;;;15.30;;
3601;SDS011;1815;50.950;6.920;2022-12-18T09:09:12;20.67;;;13.17;;
3601;SDS011;1815;50.950;6.920;2022-12-18T09:11:38;18.30;;;14.13;;
3601;SDS011;1815;50.950;6.920;2022-12-18T09:14:08;15.98;;;12.18;;
3601;SDS011;1815;50.950;6.920;2022-12-18T09:16:35;16.83;;;11.30;;
3601;SDS011;1815;50.950;6.920;2022-12-18T09:19:01;15.77;;;11.87;;
3601;SDS011;1815;50.950;6.920;2022-12-18T09:21:30;20.95;;;12.45;;
3601;SDS011;1815;50.950;6.920;2022-12-18T09:24:03;20.58;;;12.85;;
3601;SDS011;1815;50.950;6.920;2022-12-18T09:26:30;17.10;;;12.70;;
3601;SDS011;1815;50.950;6.920;2022-12-18T09:28:55;21.23;;;14.70;;
3601;SDS011;1815;50.950;6.920;2022-12-18T09:31:22;16.10;;;11.95;;
3601;SDS011;1815;50.950;6.920;2022-12-18T09:33:49;19.08;;;12.75;;
3601;SDS011;1815;50.950;6.920;2022-12-18T09:36:16;18.95;;;12.80;;
3601;SDS011;1815;50.950;6.920;2022-12-18T09:38:43;15.82;;;11.73;;
3601;SDS011;1815;50.950;6.920;2022-12-18T09:44:01;15.82;;;10.70;;
3601;SDS011;1815;50.950;6.920;2022-12-18T09:46:35;19.55;;;11.88;;
3601;SDS011;1815;50.950;6.920;2022-12-18T09:49:05;15.68;;;10.75;;
3601;SDS011;1815;50.950;6.920;2022-12-18T09:51:39;18.58;;;11.80;;
3601;SDS011;1815;50.950;6.920;2022-12-18T09:54:16;19.98;;;12.60;;
3601;SDS011;1815;50.950;6.920;2022-12-18T09:56:47;19.58;;;12.70;;
3601;SDS011;1815;50.950;6.920;2022-12-18T09:59:35;18.87;;;13.97;;
3601;SDS011;1815;50.950;6.920;2022-12-18T10:02:11;14.45;;;11.40;;
3601;SDS011;1815;50.950;6.920;2022-12-18T10:04:52;16.25;;;12.30;;
3601;SDS011;1815;50.950;6.920;2022-12-18T10:07:36;16.50;;;11.40;;
3601;SDS011;1815;50.950;6.920;2022-12-18T10:10:10;16.20;;;10.82;;
3601;SDS011;1815;50.950;6.920;2022-12-18T10:13:05;18.80;;;12.05;;
3601;SDS011;1815;50.950;6.920;2022-12-18T10:21:09;20.33;;;13.73;;
3601;SDS011;1815;50.950;6.920;2022-12-18T10:23:42;15.18;;;12.00;;
3601;SDS011;1815;50.950;6.920;2022-12-18T10:26:34;14.18;;;11.15;;
3601;SDS011;1815;50.950;6.920;2022-12-18T10:29:00;15.88;;;12.02;;
3601;SDS011;1815;50.950;6.920;2022-12-18T10:31:26;16.77;;;11.65;;
3601;SDS011;1815;50.950;6.920;2022-12-18T10:33:55;16.77;;;10.98;;
3601;SDS011;1815;50.950;6.920;2022-12-18T10:36:24;17.45;;;10.85;;
3601;SDS011;1815;50.950;6.920;2022-12-18T10:39:19;20.02;;;13.88;;
3601;SDS011;1815;50.950;6.920;2022-12-18T10:41:47;18.17;;;13.77;;
3601;SDS011;1815;50.950;6.920;2022-12-18T10:46:50;17.63;;;12.75;;
3601;SDS011;1815;50.950;6.920;2022-12-18T10:49:22;18.17;;;13.38;;
3601;SDS011;1815;50.950;6.920;2022-12-18T10:51:50;18.90;;;12.80;;
3601;SDS011;1815;50.950;6.920;2022-12-18T10:54:28;16.65;;;12.00;;
3601;SDS011;1815;50.950;6.920;2022-12-18T10:57:14;18.02;;;12.40;;
3601;SDS011;1815;50.950;6.920;2022-12-18T10:59:51;19.13;;;13.88;;
3601;SDS011;1815;50.950;6.920;2022-12-18T11:02:26;15.13;;;11.07;;
3601;SDS011;1815;50.950;6.920;2022-12-18T11:04:57;18.15;;;11.80;;
3601;SDS011;1815;50.950;6.920;2022-12-18T11:07:23;17.60;;;11.17;;
3601;SDS011;1815;50.950;6.920;2022-12-18T11:09:59;17.77;;;12.83;;
3601;SDS011;1815;50.950;6.920;2022-12-18T11:12:29;17.48;;;11.98;;
3601;SDS011;1815;50.950;6.920;2022-12-18T11:14:55;16.45;;;11.98;;
3601;SDS011;1815;50.950;6.920;2022-12-18T11:17:29;16.52;;;12.07;;
3601;SDS011;1815;50.950;6.920;2022-12-18T11:20:03;20.42;;;13.05;;
3601;SDS011;1815;50.950;6.920;2022-12-18T11:22:34;17.30;;;11.38;;
3601;SDS011;1815;50.950;6.920;2022-12-18T11:25:03;18.60;;;12.70;;
3601;SDS011;1815;50.950;6.920;2022-12-18T11:27:31;22.15;;;11.95;;
3601;SDS011;1815;50.950;6.920;2022-12-18T11:32:46;19.98;;;11.93;;
3601;SDS011;1815;50.950;6.920;2022-12-18T11:38:10;17.67;;;12.60;;
3601;SDS011;1815;50.950;6.920;2022-12-18T11:43:54;20.20;;;13.20;;
3601;SDS011;1815;50.950;6.920;2022-12-18T11:46:37;19.05;;;15.48;;
3601;SDS011;1815;50.950;6.920;2022-12-18T11:49:12;19.95;;;13.95;;
3601;SDS011;1815;50.950;6.920;2022-12-18T11:51:46;18.50;;;13.18;;
3601;SDS011;1815;50.950;6.920;2022-12-18T11:54:16;19.80;;;13.07;;
3601;SDS011;1815;50.950;6.920;2022-12-18T12:02:19;19.02;;;12.88;;
3601;SDS011;1815;50.950;6.920;2022-12-18T12:21:40;23.45;;;15.27;;
3601;SDS011;1815;50.950;6.920;2022-12-18T12:38:20;19.88;;;12.80;;
3601;SDS011;1815;50.950;6.920;2022-12-18T12:41:12;22.30;;;14.98;;
3601;SDS011;1815;50.950;6.920;2022-12-18T12:43:58;23.70;;;13.30;;
3601;SDS011;1815;50.950;6.920;2022-12-18T12:46:27;22.98;;;13.27;;
3601;SDS011;1815;50.950;6.920;2022-12-18T12:49:19;21.55;;;15.10;;
3601;SDS011;1815;50.950;6.920;2022-12-18T12:52:03;20.38;;;14.80;;
3601;SDS011;1815;50.950;6.920;2022-12-18T12:54:32;18.70;;;13.30;;
3601;SDS011;1815;50.950;6.920;2022-12-18T13:05:01;24.40;;;15.00;;
3601;SDS011;1815;50.950;6.920;2022-12-18T13:07:41;21.25;;;14.95;;
3601;SDS011;1815;50.950;6.920;2022-12-18T13:15:36;23.73;;;15.27;;
3601;SDS011;1815;50.950;6.920;2022-12-18T13:20:34;18.83;;;14.33;;
3601;SDS011;1815;50.950;6.920;2022-12-18T13:25:53;22.80;;;15.98;;
3601;SDS011;1815;50.950;6.920;2022-12-18T13:30:59;19.10;;;15.05;;
3601;SDS011;1815;50.950;6.920;2022-12-18T13:36:00;21.17;;;14.40;;
3601;SDS011;1815;50.950;6.920;2022-12-18T13:38:35;21.80;;;13.70;;
3601;SDS011;1815;50.950;6.920;2022-12-18T13:41:04;21.33;;;14.40;;
3601;SDS011;1815;50.950;6.920;2022-12-18T13:43:50;25.60;;;16.65;;
3601;SDS011;1815;50.950;6.920;2022-12-18T13:51:48;22.30;;;16.60;;
3601;SDS011;1815;50.950;6.920;2022-12-18T13:54:19;20.73;;;16.27;;
3601;SDS011;1815;50.950;6.920;2022-12-18T13:57:03;20.27;;;14.68;;
3601;SDS011;1815;50.950;6.920;2022-12-18T13:59:37;22.40;;;16.95;;
3601;SDS011;1815;50.950;6.920;2022-12-18T14:02:14;26.80;;;18.40;;
3601;SDS011;1815;50.950;6.920;2022-12-18T14:04:44;24.63;;;17.35;;
3601;SDS011;1815;50.950;6.920;2022-12-18T14:07:21;25.08;;;15.95;;
3601;SDS011;1815;50.950;6.920;2022-12-18T14:09:52;27.75;;;18.83;;
3601;SDS011;1815;50.950;6.920;2022-12-18T14:12:30;22.35;;;16.95;;
3601;SDS011;1815;50.950;6.920;2022-12-18T14:17:54;23.45;;;14.98;;
3601;SDS011;1815;50.950;6.920;2022-12-18T14:20:24;24.60;;;17.00;;
3601;SDS011;1815;50.950;6.920;2022-12-18T14:22:56;22.38;;;15.48;;
3601;SDS011;1815;50.950;6.920;2022-12-18T14:25:27;27.30;;;17.10;;
3601;SDS011;1815;50.950;6.920;2022-12-18T14:28:02;21.30;;;17.00;;
3601;SDS011;1815;50.950;6.920;2022-12-18T14:30:35;23.10;;;17.98;;
3601;SDS011;1815;50.950;6.920;2022-12-18T14:33:04;24.63;;;16.90;;
3601;SDS011;1815;50.950;6.920;2022-12-18T14:35:35;26.80;;;18.40;;
3601;SDS011;1815;50.950;6.920;2022-12-18T14:41:13;22.15;;;16.60;;
3601;SDS011;1815;50.950;6.920;2022-12-18T14:43:41;23.90;;;16.52;;
3601;SDS011;1815;50.950;6.920;2022-12-18T14:48:53;25.20;;;16.60;;
3601;SDS011;1815;50.950;6.920;2022-12-18T14:51:23;23.55;;;16.55;;
3601;SDS011;1815;50.950;6.920;2022-12-18T14:56:43;27.20;;;17.80;;
3601;SDS011;1815;50.950;6.920;2022-12-18T14:59:15;23.80;;;15.85;;
3601;SDS011;1815;50.950;6.920;2022-12-18T15:04:29;29.48;;;17.45;;
3601;SDS011;1815;50.950;6.920;2022-12-18T15:09:36;27.20;;;17.67;;
3601;SDS011;1815;50.950;6.920;2022-12-18T15:12:03;26.70;;;18.08;;
3601;SDS011;1815;50.950;6.920;2022-12-18T15:16:54;32.57;;;19.20;;
3601;SDS011;1815;50.950;6.920;2022-12-18T15:19:22;26.90;;;20.17;;
3601;SDS011;1815;50.950;6.920;2022-12-18T15:21:57;25.52;;;18.27;;
3601;SDS011;1815;50.950;6.920;2022-12-18T15:24:26;25.50;;;17.83;;
3601;SDS011;1815;50.950;6.920;2022-12-18T15:26:55;27.50;;;18.52;;
3601;SDS011;1815;50.950;6.920;2022-12-18T15:29:21;27.53;;;18.60;;
3601;SDS011;1815;50.950;6.920;2022-12-18T15:32:04;28.48;;;19.02;;
3601;SDS011;1815;50.950;6.920;2022-12-18T15:34:40;26.77;;;17.13;;
3601;SDS011;1815;50.950;6.920;2022-12-18T15:37:07;24.00;;;17.90;;
3601;SDS011;1815;50.950;6.920;2022-12-18T15:39:33;25.40;;;18.83;;
3601;SDS011;1815;50.950;6.920;2022-12-18T15:42:01;24.52;;;17.02;;
3601;SDS011;1815;50.950;6.920;2022-12-18T15:44:45;30.90;;;19.92;;
3601;SDS011;1815;50.950;6.920;2022-12-18T15:47:11;29.30;;;18.47;;
3601;SDS011;1815;50.950;6.920;2022-12-18T15:49:38;29.20;;;18.75;;
3601;SDS011;1815;50.950;6.920;2022-12-18T15:52:04;25.08;;;19.65;;
3601;SDS011;1815;50.950;6.920;2022-12-18T15:54:30;26.67;;;17.88;;
3601;SDS011;1815;50.950;6.920;2022-12-18T15:57:15;23.05;;;15.82;;
3601;SDS011;1815;50.950;6.920;2022-12-18T15:59:56;27.30;;;19.52;;
3601;SDS011;1815;50.950;6.920;2022-12-18T16:02:23;28.50;;;17.60;;
3601;SDS011;1815;50.950;6.920;2022-12-18T16:04:50;30.10;;;19.15;;
3601;SDS011;1815;50.950;6.920;2022-12-18T16:07:17;28.52;;;20.83;;
3601;SDS011;1815;50.950;6.920;2022-12-18T16:09:43;30.50;;;19.75;;
3601;SDS011;1815;50.950;6.920;2022-12-18T16:12:16;26.75;;;19.35;;
3601;SDS011;1815;50.950;6.920;2022-12-18T16:14:44;29.70;;;21.17;;
3601;SDS011;1815;50.950;6.920;2022-12-18T16:17:11;26.48;;;20.65;;
3601;SDS011;1815;50.950;6.920;2022-12-18T16:19:37;32.20;;;22.20;;
3601;SDS011;1815;50.950;6.920;2022-12-18T16:22:03;37.83;;;24.40;;
3601;SDS011;1815;50.950;6.920;2022-12-18T16:24:31;34.63;;;22.48;;
3601;SDS011;1815;50.950;6.920;2022-12-18T16:26:58;29.73;;;21.60;;
3601;SDS011;1815;50.950;6.920;2022-12-18T16:29:26;30.02;;;20.52;;
3601;SDS011;1815;50.950;6.920;2022-12-18T16:31:54;32.38;;;21.88;;
3601;SDS011;1815;50.950;6.920;2022-12-18T16:36:55;31.67;;;20.33;;
3601;SDS011;1815;50.950;6.920;2022-12-18T16:39:22;26.63;;;18.10;;
3601;SDS011;1815;50.950;6.920;2022-12-18T16:41:48;31.10;;;19.10;;
3601;SDS011;1815;50.950;6.920;2022-12-18T16:44:14;32.03;;;21.05;;
3601;SDS011;1815;50.950;6.920;2022-12-18T16:46:40;28.90;;;21.95;;
3601;SDS011;1815;50.950;6.920;2022-12-18T16:49:11;31.35;;;20.92;;
3601;SDS011;1815;50.950;6.920;2022-12-18T16:51:41;27.52;;;18.77;;
3601;SDS011;1815;50.950;6.920;2022-12-18T16:54:07;21.85;;;16.50;;
3601;SDS011;1815;50.950;6.920;2022-12-18T16:56:33;20.92;;;15.73;;
3601;SDS011;1815;50.950;6.920;2022-12-18T16:59:00;20.55;;;15.43;;
3601;SDS011;1815;50.950;6.920;2022-12-18T17:01:28;30.98;;;21.95;;
3601;SDS011;1815;50.950;6.920;2022-12-18T17:03:58;29.33;;;20.38;;
3601;SDS011;1815;50.950;6.920;2022-12-18T17:06:26;26.58;;;17.75;;
3601;SDS011;1815;50.950;6.920;2022-12-18T17:08:59;31.38;;;21.42;;
3601;SDS011;1815;50.950;6.920;2022-12-18T17:11:27;32.55;;;20.05;;
3601;SDS011;1815;50.950;6.920;2022-12-18T17:13:54;31.25;;;22.25;;